Time;durP1;ratioP1;P1;durP2;ratioP2;P2;SDS_P1;SDS_P2;PMS_P1;PMS_P2;Temp;Humidity;BMP_temperature;BMP_pressure;BME280_temperature;BME280_humidity;BME280_pressure;Samples;Min_cycle;Max_cycle;Signal;HPM_P1;HPM_P2
2023/09/10 00:00:41;;;;;;;29.42;23.17;;;;;;;21.53;100.00;-18605.50;5022112;28;20432;-76
2023/09/10 00:03:07;;;;;;;28.23;22.55;;;;;;;21.61;100.00;-18607.81;5006688;28;20037;-76
2023/09/10 00:05:32;;;;;;;28.08;22.67;;;;;;;21.61;100.00;-18607.69;5023458;28;20124;-77
2023/09/10 00:08:00;;;;;;;28.75;23.10;;;;;;;21.37;100.00;-18601.41;5019114;28;20176;-76
2023/09/10 00:10:26;;;;;;;26.98;22.27;;;;;;;21.39;100.00;-18601.97;5023759;28;20037;-76
2023/09/10 00:12:51;;;;;;;30.02;23.33;;;;;;;21.42;100.00;-18602.66;5000734;28;20045;-76
2023/09/10 00:15:16;;;;;;;26.50;22.35;;;;;;;21.42;100.00;-18602.50;5005954;28;20045;-76
2023/09/10 00:17:42;;;;;;;25.38;20.98;;;;;;;21.42;100.00;-18602.50;5023346;28;20456;-75
2023/09/10 00:20:09;;;;;;;28.45;23.65;;;;;;;21.25;100.00;-18598.16;5009878;28;20374;-76
2023/09/10 00:22:34;;;;;;;28.48;22.58;;;;;;;21.29;100.00;-18599.09;5027330;28;20042;-76
2023/09/10 00:25:00;;;;;;;28.35;23.45;;;;;;;21.20;100.00;-18596.78;5026714;28;20041;-76
2023/09/10 00:27:25;;;;;;;29.33;24.30;;;;;;;21.24;100.00;-18597.88;5028749;28;20604;-76
2023/09/10 00:29:50;;;;;;;29.55;24.17;;;;;;;21.39;100.00;-18601.84;5027579;28;20037;-76
2023/09/10 00:32:16;;;;;;;28.95;22.88;;;;;;;21.45;100.00;-18603.47;5027031;28;20132;-75
2023/09/10 00:34:41;;;;;;;29.35;23.48;;;;;;;21.40;100.00;-18602.09;5025049;28;20187;-76
2023/09/10 00:37:07;;;;;;;27.48;23.77;;;;;;;21.38;100.00;-18601.69;5027811;28;20512;-76
2023/09/10 00:39:32;;;;;;;31.65;24.95;;;;;;;21.39;100.00;-18601.97;5028113;28;20048;-75
2023/09/10 00:41:58;;;;;;;32.55;25.17;;;;;;;21.26;100.00;-18598.28;5021974;28;20036;-76
2023/09/10 00:44:23;;;;;;;30.70;25.08;;;;;;;21.20;100.00;-18596.78;5008741;28;20129;-76
2023/09/10 00:46:53;;;;;;;31.63;24.95;;;;;;;21.02;100.00;-18591.91;5006529;28;20045;-76
2023/09/10 00:49:18;;;;;;;31.20;24.52;;;;;;;21.16;100.00;-18595.72;5025320;28;20378;-76
2023/09/10 00:51:46;;;;;;;29.83;23.98;;;;;;;21.03;100.00;-18592.31;5010487;28;20044;-76
2023/09/10 00:54:14;;;;;;;31.15;25.35;;;;;;;21.02;100.00;-18591.91;5009316;28;20037;-75
2023/09/10 00:56:39;;;;;;;29.30;25.05;;;;;;;21.03;100.00;-18592.31;5027716;28;20496;-76
2023/09/10 00:59:05;;;;;;;30.15;24.92;;;;;;;20.99;100.00;-18591.09;5026433;28;20132;-76
2023/09/10 01:01:30;;;;;;;31.13;24.77;;;;;;;21.04;100.00;-18592.44;5022460;28;20064;-76
2023/09/10 01:03:56;;;;;;;30.70;24.27;;;;;;;20.94;100.00;-18590.00;5009041;28;20424;-76
2023/09/10 01:06:22;;;;;;;31.88;24.70;;;;;;;20.81;100.00;-18586.47;5026839;28;20094;-76
2023/09/10 01:08:48;;;;;;;35.28;25.25;;;;;;;20.92;100.00;-18589.47;5025098;28;20400;-76
2023/09/10 01:11:51;;;;;;;31.17;25.67;;;;;;;20.96;100.00;-18590.41;5007600;28;20044;-75
2023/09/10 01:14:38;;;;;;;30.05;24.33;;;;;;;20.80;100.00;-18586.06;5005826;28;20065;-76
2023/09/10 01:17:18;;;;;;;35.15;25.10;;;;;;;20.91;100.00;-18589.03;5026621;28;20040;-76
2023/09/10 01:20:10;;;;;;;31.48;24.45;;;;;;;20.85;100.00;-18587.56;5025666;28;20811;-76
2023/09/10 01:22:54;;;;;;;33.78;25.90;;;;;;;20.78;100.00;-18585.66;5011074;28;20681;-75
2023/09/10 01:25:21;;;;;;;31.30;24.25;;;;;;;20.64;100.00;-18581.97;4993982;28;20053;-75
2023/09/10 01:27:46;;;;;;;28.15;23.80;;;;;;;20.61;100.00;-18581.16;5007457;28;20422;-76
2023/09/10 01:30:12;;;;;;;31.23;24.58;;;;;;;20.63;100.00;-18581.56;5026903;28;20045;-76
2023/09/10 01:32:50;;;;;;;29.23;24.02;;;;;;;20.56;100.00;-18579.66;5025155;28;20053;-76
2023/09/10 01:35:29;;;;;;;28.38;23.55;;;;;;;20.57;100.00;-18579.94;5009741;28;20044;-76
2023/09/10 01:38:09;;;;;;;31.15;24.55;;;;;;;20.59;100.00;-18580.47;5024259;28;20051;-76
2023/09/10 01:40:42;;;;;;;27.50;22.75;;;;;;;20.51;100.00;-18578.56;5026715;28;20553;-76
2023/09/10 01:43:09;;;;;;;27.85;22.95;;;;;;;20.50;100.00;-18578.28;5025903;28;20485;-75
2023/09/10 01:45:35;;;;;;;30.08;23.95;;;;;;;20.57;100.00;-18579.94;5005812;28;20037;-76
2023/09/10 01:48:01;;;;;;;31.27;23.52;;;;;;;20.63;100.00;-18581.56;5024064;28;20046;-76
2023/09/10 01:50:29;;;;;;;30.52;25.25;;;;;;;20.71;100.00;-18583.75;5022455;28;20086;-77
2023/09/10 01:52:57;;;;;;;30.90;24.42;;;;;;;20.73;100.00;-18584.28;5022590;28;20045;-77
2023/09/10 01:55:23;;;;;;;29.48;24.17;;;;;;;20.66;100.00;-18582.53;5023593;28;20624;-76
2023/09/10 01:57:48;;;;;;;30.35;25.30;;;;;;;20.68;100.00;-18582.94;5025625;28;20029;-76
2023/09/10 02:00:14;;;;;;;31.05;25.65;;;;;;;20.81;100.00;-18586.47;5007151;28;20045;-76
2023/09/10 02:02:40;;;;;;;33.72;26.63;;;;;;;20.79;100.00;-18585.78;4998594;28;20044;-76
2023/09/10 02:05:05;;;;;;;32.35;26.35;;;;;;;20.71;100.00;-18583.88;5024005;28;20061;-76
2023/09/10 02:07:30;;;;;;;35.38;27.77;;;;;;;20.69;100.00;-18583.19;5025173;28;20515;-76
2023/09/10 02:09:58;;;;;;;32.22;26.55;;;;;;;20.63;100.00;-18581.56;5025813;28;20102;-76
2023/09/10 02:12:24;;;;;;;32.65;26.20;;;;;;;20.69;100.00;-18583.19;5024212;28;20489;-75
2023/09/10 02:14:49;;;;;;;31.80;24.77;;;;;;;20.65;100.00;-18582.09;5023861;28;20132;-76
2023/09/10 02:17:15;;;;;;;32.22;25.75;;;;;;;20.64;100.00;-18581.97;5026312;28;20052;-76
2023/09/10 02:19:40;;;;;;;36.35;26.90;;;;;;;20.87;100.00;-18587.97;5005616;28;20136;-75
2023/09/10 02:22:06;;;;;;;35.17;26.33;;;;;;;20.97;100.00;-18590.69;5023541;28;20041;-76
2023/09/10 02:24:31;;;;;;;35.20;27.83;;;;;;;20.75;100.00;-18584.84;5023127;28;20042;-76
2023/09/10 02:26:56;;;;;;;41.72;30.73;;;;;;;20.72;100.00;-18584.00;5025306;28;20076;-76
2023/09/10 02:29:22;;;;;;;33.97;28.02;;;;;;;20.88;100.00;-18588.38;5017381;28;20041;-76
2023/09/10 02:31:47;;;;;;;37.00;28.50;;;;;;;20.89;100.00;-18588.63;5022397;28;20044;-75
2023/09/10 02:34:12;;;;;;;33.75;27.23;;;;;;;20.93;100.00;-18589.59;5019243;28;20617;-75
2023/09/10 02:36:38;;;;;;;33.55;26.67;;;;;;;20.95;100.00;-18590.28;5005024;28;20092;-75
2023/09/10 02:39:03;;;;;;;34.72;26.42;;;;;;;20.95;100.00;-18590.28;5017888;28;20060;-75
2023/09/10 02:41:28;;;;;;;31.65;25.35;;;;;;;20.87;100.00;-18588.09;5021626;28;20287;-75
2023/09/10 02:43:54;;;;;;;31.98;24.70;;;;;;;20.71;100.00;-18583.75;5023094;28;20075;-76
2023/09/10 02:46:19;;;;;;;33.25;25.95;;;;;;;20.72;100.00;-18584.00;5025473;28;20052;-76
2023/09/10 02:48:45;;;;;;;35.90;26.70;;;;;;;20.61;100.00;-18581.03;5022344;28;20342;-75
2023/09/10 02:51:10;;;;;;;33.42;25.25;;;;;;;20.66;100.00;-18582.38;5022791;28;20106;-75
2023/09/10 02:53:35;;;;;;;31.70;26.10;;;;;;;20.67;100.00;-18582.78;5022402;28;20043;-76
2023/09/10 02:56:02;;;;;;;32.65;25.85;;;;;;;20.65;100.00;-18582.09;5024610;28;20076;-75
2023/09/10 02:58:27;;;;;;;32.38;25.35;;;;;;;20.67;100.00;-18582.78;5025738;28;20477;-76
2023/09/10 03:00:53;;;;;;;35.60;27.70;;;;;;;20.73;100.00;-18584.28;5024967;28;20060;-76
2023/09/10 03:03:19;;;;;;;35.20;28.15;;;;;;;20.68;100.00;-18582.94;5025321;28;20037;-76
2023/09/10 03:05:45;;;;;;;38.90;29.08;;;;;;;20.75;100.00;-18584.69;5018951;28;20045;-75
2023/09/10 03:08:11;;;;;;;42.05;31.80;;;;;;;20.61;100.00;-18581.03;5024435;28;20083;-75
2023/09/10 03:10:36;;;;;;;41.40;31.58;;;;;;;20.64;100.00;-18581.97;5025473;28;20073;-76
2023/09/10 03:13:01;;;;;;;38.03;30.27;;;;;;;20.52;100.00;-18578.72;5021966;28;20084;-76
2023/09/10 03:15:27;;;;;;;38.65;30.67;;;;;;;20.56;100.00;-18579.66;5024878;28;20485;-75
2023/09/10 03:17:52;;;;;;;40.35;30.98;;;;;;;20.47;100.00;-18577.34;5020230;28;20038;-76
2023/09/10 03:20:18;;;;;;;39.60;31.00;;;;;;;20.35;100.00;-18574.22;5023237;28;20041;-76
2023/09/10 03:22:43;;;;;;;42.67;31.92;;;;;;;20.36;100.00;-18574.47;5020676;28;20520;-75
2023/09/10 03:25:09;;;;;;;41.22;31.27;;;;;;;20.34;100.00;-18573.94;5007467;28;20045;-76
2023/09/10 03:27:34;;;;;;;44.97;32.92;;;;;;;20.87;100.00;-18587.97;5023275;28;20645;-74
2023/09/10 03:30:00;;;;;;;43.50;32.33;;;;;;;20.96;100.00;-18590.53;5022409;28;20033;-75
2023/09/10 03:32:25;;;;;;;43.35;32.88;;;;;;;20.74;100.00;-18584.56;5024613;28;20107;-76
2023/09/10 03:34:51;;;;;;;44.88;34.80;;;;;;;20.65;100.00;-18582.25;5024093;28;20041;-75
2023/09/10 03:37:16;;;;;;;41.80;32.55;;;;;;;20.76;100.00;-18585.09;5024639;28;20048;-76
2023/09/10 03:39:41;;;;;;;44.63;32.92;;;;;;;20.78;100.00;-18585.50;5024043;28;20037;-76
2023/09/10 03:42:08;;;;;;;46.15;32.67;;;;;;;20.57;100.00;-18579.94;5024343;28;20049;-75
2023/09/10 03:44:33;;;;;;;43.25;32.22;;;;;;;20.69;100.00;-18583.34;5024040;28;20553;-75
2023/09/10 03:46:59;;;;;;;40.90;32.45;;;;;;;20.66;100.00;-18582.53;5023858;28;20140;-75
2023/09/10 03:49:25;;;;;;;42.85;32.42;;;;;;;20.78;100.00;-18585.50;5007763;28;20564;-76
2023/09/10 03:51:51;;;;;;;43.00;31.67;;;;;;;21.07;100.00;-18593.25;5017799;28;20072;-75
2023/09/10 03:54:17;;;;;;;41.58;31.15;;;;;;;20.76;100.00;-18584.97;5025220;28;20048;-76
2023/09/10 03:56:43;;;;;;;41.67;30.70;;;;;;;20.44;100.00;-18576.66;5021770;28;20045;-75
2023/09/10 03:59:08;;;;;;;41.35;31.30;;;;;;;20.67;100.00;-18582.78;5024684;28;20453;-75
2023/09/10 04:01:35;;;;;;;42.83;30.80;;;;;;;20.34;100.00;-18573.94;5022371;28;20053;-75
2023/09/10 04:04:01;;;;;;;42.95;30.88;;;;;;;20.10;100.00;-18567.53;4999733;28;20072;-75
2023/09/10 04:06:26;;;;;;;41.88;31.15;;;;;;;20.05;100.00;-18566.31;5021846;28;20052;-75
2023/09/10 04:08:52;;;;;;;39.13;29.95;;;;;;;19.90;100.00;-18562.09;5019527;28;20426;-76
2023/09/10 04:11:17;;;;;;;40.67;30.88;;;;;;;20.08;100.00;-18567.00;5022479;28;20069;-75
2023/09/10 04:13:42;;;;;;;40.70;30.70;;;;;;;19.97;100.00;-18564.16;5021923;28;20037;-75
2023/09/10 04:16:08;;;;;;;40.53;30.10;;;;;;;19.98;100.00;-18564.41;5022699;28;20052;-75
2023/09/10 04:18:34;;;;;;;41.95;31.92;;;;;;;19.96;100.00;-18563.88;5022377;28;20084;-75
2023/09/10 04:21:03;;;;;;;41.88;31.60;;;;;;;19.89;100.00;-18561.97;5020125;28;20561;-76
2023/09/10 04:23:29;;;;;;;;;;;;;;;19.83;100.00;-18560.34;5023165;28;20053;-75
2023/09/10 04:25:54;;;;;;;44.53;34.92;;;;;;;19.71;100.00;-18557.19;5017088;28;20912;-75
2023/09/10 04:28:19;;;;;;;45.42;32.15;;;;;;;19.68;100.00;-18556.38;5023259;28;20103;-76
2023/09/10 04:30:44;;;;;;;43.92;32.35;;;;;;;19.72;100.00;-18557.34;5021802;28;20041;-76
2023/09/10 04:33:11;;;;;;;41.95;32.92;;;;;;;19.76;100.00;-18558.56;5005103;28;20048;-75
2023/09/10 04:35:37;;;;;;;43.65;32.65;;;;;;;19.80;100.00;-18559.66;5021932;28;20038;-75
2023/09/10 04:38:02;;;;;;;45.90;33.03;;;;;;;19.74;100.00;-18557.88;5023222;28;20475;-75
2023/09/10 04:40:28;;;;;;;43.40;32.25;;;;;;;19.77;100.00;-18558.69;5020998;28;20038;-75
2023/09/10 04:42:55;;;;;;;44.33;33.35;;;;;;;19.78;100.00;-18558.97;5020002;28;20049;-75
2023/09/10 04:45:20;;;;;;;43.47;32.58;;;;;;;19.81;100.00;-18559.78;5021830;28;20065;-75
2023/09/10 04:47:46;;;;;;;43.92;32.20;;;;;;;19.69;100.00;-18556.53;5020709;28;20068;-75
2023/09/10 04:50:12;;;;;;;47.60;34.67;;;;;;;19.79;100.00;-18559.25;5023522;28;20140;-75
2023/09/10 04:52:37;;;;;;;44.22;33.67;;;;;;;19.84;100.00;-18560.75;5020941;28;20048;-75
2023/09/10 04:55:03;;;;;;;45.28;34.10;;;;;;;19.98;100.00;-18564.41;5022881;28;20045;-76
2023/09/10 04:57:29;;;;;;;49.28;34.83;;;;;;;19.83;100.00;-18560.34;5022105;28;20605;-76
2023/09/10 04:59:54;;;;;;;46.05;33.70;;;;;;;19.94;100.00;-18563.31;5005516;28;20115;-76
2023/09/10 05:02:19;;;;;;;48.55;35.50;;;;;;;19.91;100.00;-18562.50;5027374;28;20045;-76
2023/09/10 05:04:45;;;;;;;47.20;35.72;;;;;;;19.98;100.00;-18564.41;5026477;28;20041;-76
2023/09/10 05:07:10;;;;;;;49.05;34.70;;;;;;;19.90;100.00;-18562.22;5004360;28;20494;-76
2023/09/10 05:09:35;;;;;;;48.35;35.22;;;;;;;19.93;100.00;-18563.06;5027106;28;20497;-74
2023/09/10 05:12:01;;;;;;;46.90;35.97;;;;;;;19.98;100.00;-18564.41;5008838;28;20567;-76
2023/09/10 05:14:28;;;;;;;48.85;35.97;;;;;;;19.93;100.00;-18562.91;5024260;28;20053;-76
2023/09/10 05:16:54;;;;;;;51.72;36.83;;;;;;;19.75;100.00;-18558.28;5026314;28;20500;-77
2023/09/10 05:19:23;;;;;;;52.53;36.17;;;;;;;19.85;100.00;-18560.88;5027454;28;20060;-76
2023/09/10 05:21:48;;;;;;;49.35;37.00;;;;;;;19.88;100.00;-18561.69;5021996;28;20679;-76
2023/09/10 05:24:14;;;;;;;51.17;37.42;;;;;;;19.93;100.00;-18562.91;5024297;28;20053;-76
2023/09/10 05:26:39;;;;;;;52.72;37.22;;;;;;;20.02;100.00;-18565.38;5023757;28;20493;-76
2023/09/10 05:29:05;;;;;;;50.60;37.28;;;;;;;20.12;100.00;-18568.09;5022726;28;20053;-76
2023/09/10 05:31:30;;;;;;;52.95;39.13;;;;;;;20.32;100.00;-18573.41;5026503;28;20056;-75
2023/09/10 05:33:55;;;;;;;52.03;37.70;;;;;;;20.33;100.00;-18573.66;5011605;28;20508;-76
2023/09/10 05:36:21;;;;;;;53.35;39.00;;;;;;;20.45;100.00;-18576.78;5024629;28;20045;-76
2023/09/10 05:38:46;;;;;;;50.13;36.90;;;;;;;20.45;100.00;-18576.94;5025457;28;20053;-76
2023/09/10 05:41:12;;;;;;;49.60;36.70;;;;;;;20.47;100.00;-18577.34;5028042;28;20159;-75
2023/09/10 05:43:37;;;;;;;48.70;35.42;;;;;;;20.43;100.00;-18576.41;5025635;28;20665;-77
2023/09/10 05:46:03;;;;;;;54.13;39.67;;;;;;;20.56;100.00;-18579.66;5027052;28;20065;-76
2023/09/10 05:48:28;;;;;;;56.40;40.50;;;;;;;20.57;100.00;-18580.06;5028403;28;20036;-74
2023/09/10 05:50:57;;;;;;;58.50;41.70;;;;;;;20.61;100.00;-18581.16;5026011;28;20121;-76
2023/09/10 05:53:23;;;;;;;54.95;40.90;;;;;;;20.67;100.00;-18582.78;5027928;28;20492;-76
2023/09/10 05:55:48;;;;;;;57.70;41.33;;;;;;;20.67;100.00;-18582.78;5026427;28;20033;-76
2023/09/10 05:58:14;;;;;;;59.78;43.20;;;;;;;20.82;100.00;-18586.72;5022137;28;20139;-76
2023/09/10 06:00:39;;;;;;;57.63;42.75;;;;;;;20.93;100.00;-18589.72;5025222;28;20079;-76
2023/09/10 06:03:07;;;;;;;60.35;42.70;;;;;;;21.04;100.00;-18592.59;5024998;28;20045;-75
2023/09/10 06:05:32;;;;;;;64.78;47.15;;;;;;;21.03;100.00;-18592.31;5023580;28;20067;-76
2023/09/10 06:07:58;;;;;;;64.90;45.67;;;;;;;21.21;100.00;-18597.06;5024774;28;20042;-76
2023/09/10 06:10:23;;;;;;;65.22;47.30;;;;;;;21.13;100.00;-18595.03;5023164;28;20128;-76
2023/09/10 06:12:48;;;;;;;67.47;46.38;;;;;;;21.31;100.00;-18599.66;5004480;28;20037;-76
2023/09/10 06:15:14;;;;;;;66.20;49.20;;;;;;;21.38;100.00;-18601.69;5003975;28;20114;-78
2023/09/10 06:17:39;;;;;;;74.65;51.88;;;;;;;21.35;100.00;-18600.75;5005926;28;20081;-76
2023/09/10 06:20:05;;;;;;;66.90;47.58;;;;;;;21.49;100.00;-18604.56;5021863;28;20049;-76
2023/09/10 06:22:31;;;;;;;71.93;49.72;;;;;;;21.45;100.00;-18603.31;5006577;28;20046;-74
2023/09/10 06:24:56;;;;;;;69.70;49.20;;;;;;;21.63;100.00;-18608.34;5023807;28;20038;-75
2023/09/10 06:27:22;;;;;;;72.15;51.08;;;;;;;21.79;100.00;-18612.56;5024152;28;20049;-74
2023/09/10 06:29:47;;;;;;;72.53;51.85;;;;;;;21.80;100.00;-18612.69;5008926;28;20034;-74
2023/09/10 06:32:12;;;;;;;72.25;51.10;;;;;;;21.93;100.00;-18616.09;5026509;28;20697;-76
2023/09/10 06:34:38;;;;;;;71.03;51.40;;;;;;;22.05;100.00;-18619.50;5022121;28;20088;-76
2023/09/10 06:37:05;;;;;;;70.00;50.83;;;;;;;22.07;100.00;-18619.91;5026951;28;20685;-75
2023/09/10 06:39:31;;;;;;;69.75;52.33;;;;;;;22.20;100.00;-18623.31;5024462;28;20455;-76
2023/09/10 06:41:57;;;;;;;71.93;52.22;;;;;;;22.40;100.00;-18628.75;5027438;28;20037;-76
2023/09/10 06:44:22;;;;;;;73.07;52.65;;;;;;;22.43;100.00;-18629.56;5027018;28;20095;-74
2023/09/10 06:46:48;;;;;;;75.97;53.35;;;;;;;22.48;100.00;-18630.91;5025350;28;20040;-75
2023/09/10 06:49:13;;;;;;;71.80;53.80;;;;;;;22.64;100.00;-18635.13;5028232;28;20076;-76
2023/09/10 06:51:38;;;;;;;74.60;53.78;;;;;;;22.80;100.00;-18639.19;5027355;28;20472;-75
2023/09/10 06:54:04;;;;;;;74.45;53.70;;;;;;;22.83;100.00;-18640.13;5026103;28;20040;-75
2023/09/10 06:56:29;;;;;;;69.68;52.40;;;;;;;22.80;100.00;-18639.31;5026265;28;20038;-76
2023/09/10 06:58:55;;;;;;;73.47;52.38;;;;;;;22.88;100.00;-18641.38;5026935;28;20037;-76
2023/09/10 07:01:21;;;;;;;67.65;51.33;;;;;;;22.98;100.00;-18644.22;5028095;28;20038;-75
2023/09/10 07:03:50;;;;;;;67.95;52.35;;;;;;;23.06;100.00;-18646.25;5025280;28;20382;-74
2023/09/10 07:06:16;;;;;;;61.83;48.78;;;;;;;23.17;100.00;-18649.25;5031236;28;20989;-75
2023/09/10 07:08:41;;;;;;;61.72;48.58;;;;;;;23.35;100.00;-18653.97;5015182;28;20064;-76
2023/09/10 07:11:06;;;;;;;65.43;49.63;;;;;;;23.33;100.00;-18653.31;5033199;28;20033;-75
2023/09/10 07:13:34;;;;;;;59.67;47.03;;;;;;;23.56;100.00;-18659.53;5032548;28;20052;-76
2023/09/10 07:15:59;;;;;;;63.63;46.35;;;;;;;23.53;100.00;-18658.72;5024711;28;20037;-77
2023/09/10 07:18:26;;;;;;;61.45;46.20;;;;;;;23.61;100.00;-18660.75;5026230;28;20458;-76
2023/09/10 07:20:52;;;;;;;57.30;44.95;;;;;;;23.77;100.00;-18664.97;5009748;28;20038;-77
2023/09/10 07:23:17;;;;;;;60.03;44.30;;;;;;;23.92;100.00;-18669.03;5025209;28;20053;-76
2023/09/10 07:25:42;;;;;;;51.20;40.95;;;;;;;24.18;100.00;-18675.81;5024795;28;20497;-77
2023/09/10 07:28:08;;;;;;;48.55;39.13;;;;;;;24.20;100.00;-18676.34;5025795;28;20099;-77
2023/09/10 07:30:33;;;;;;;56.65;42.00;;;;;;;24.30;100.00;-18679.19;5025621;28;20038;-76
2023/09/10 07:32:58;;;;;;;50.25;40.25;;;;;;;24.43;100.00;-18682.47;5007644;28;20037;-75
2023/09/10 07:35:24;;;;;;;52.47;41.33;;;;;;;24.59;100.00;-18686.66;5021072;28;20069;-77
2023/09/10 07:37:51;;;;;;;49.13;38.03;;;;;;;24.76;100.00;-18691.41;5024628;28;20103;-77
2023/09/10 07:40:16;;;;;;;51.00;39.20;;;;;;;24.91;100.00;-18695.19;5026238;28;20106;-77
2023/09/10 07:42:42;;;;;;;48.28;39.55;;;;;;;25.01;100.00;-18697.75;5007620;28;20053;-77
2023/09/10 07:45:14;;;;;;;47.45;37.65;;;;;;;25.07;100.00;-18699.38;5007265;28;20056;-75
2023/09/10 07:47:40;;;;;;;46.45;36.65;;;;;;;25.09;100.00;-18699.94;5017319;28;20045;-76
2023/09/10 07:50:06;;;;;;;46.65;37.90;;;;;;;25.08;100.00;-18699.78;5020823;28;20116;-75
2023/09/10 07:52:31;;;;;;;43.75;35.10;;;;;;;25.15;100.00;-18701.56;5019600;28;20749;-76
2023/09/10 07:54:57;;;;;;;46.10;36.50;;;;;;;25.27;100.00;-18704.81;5018673;28;20041;-77
2023/09/10 07:57:24;;;;;;;43.83;36.20;;;;;;;25.34;100.00;-18706.69;5020445;28;20041;-77
2023/09/10 07:59:50;;;;;;;45.60;36.10;;;;;;;25.50;100.00;-18710.75;5017463;28;20037;-77
2023/09/10 08:02:15;;;;;;;44.30;34.72;;;;;;;25.68;100.00;-18715.63;5023601;28;20111;-75
2023/09/10 08:04:45;;;;;;;41.67;33.22;;;;;;;26.03;100.00;-18724.84;5003987;28;20966;-76
2023/09/10 08:07:13;;;;;;;40.50;32.65;;;;;;;26.12;100.00;-18727.25;4998850;28;20109;-76
2023/09/10 08:09:39;;;;;;;42.83;32.50;;;;;;;26.11;100.00;-18727.13;4979658;28;20069;-75
2023/09/10 08:12:05;;;;;;;40.38;31.58;;;;;;;26.31;100.00;-18732.41;5000329;28;20097;-76
2023/09/10 08:14:31;;;;;;;38.53;32.53;;;;;;;26.87;100.00;-18747.13;4990884;28;20056;-76
2023/09/10 08:16:56;;;;;;;38.63;30.90;;;;;;;27.55;100.00;-18765.09;4997046;28;20046;-76
2023/09/10 08:19:21;;;;;;;38.28;30.13;;;;;;;27.42;100.00;-18761.72;4999609;28;20042;-77
2023/09/10 08:21:48;;;;;;;38.50;29.08;;;;;;;28.33;94.62;-18785.59;5000251;28;20045;-76
2023/09/10 08:24:13;;;;;;;35.88;29.20;;;;;;;28.87;89.50;-18799.91;5000041;28;20105;-76
2023/09/10 08:26:38;;;;;;;37.88;28.67;;;;;;;28.48;92.69;-18789.66;4995131;28;20049;-75
2023/09/10 08:29:04;;;;;;;36.53;27.77;;;;;;;28.33;98.33;-18785.59;5001999;28;20046;-75
2023/09/10 08:31:30;;;;;;;35.28;28.45;;;;;;;29.05;90.66;-18804.63;5000074;28;20045;-76
2023/09/10 08:33:55;;;;;;;31.10;27.27;;;;;;;29.02;87.73;-18803.81;5000819;28;20038;-76
2023/09/10 08:36:20;;;;;;;32.53;27.27;;;;;;;29.11;89.08;-18806.09;5007508;28;20046;-76
2023/09/10 08:38:46;;;;;;;31.58;25.35;;;;;;;29.24;88.83;-18809.59;5025733;28;20456;-76
2023/09/10 08:41:28;;;;;;;28.98;22.23;;;;;;;29.42;87.48;-18814.44;5025192;28;20053;-76
2023/09/10 08:43:58;;;;;;;29.33;24.35;;;;;;;29.63;81.28;-18819.84;5020291;28;20034;-77
2023/09/10 08:46:30;;;;;;;29.13;21.80;;;;;;;29.45;82.67;-18815.25;5026728;28;20129;-77
2023/09/10 08:48:57;;;;;;;27.27;21.60;;;;;;;29.53;82.22;-18817.28;5025145;28;20147;-77
2023/09/10 08:51:23;;;;;;;26.70;22.33;;;;;;;29.70;82.11;-18821.72;5027255;28;20040;-76
2023/09/10 08:53:50;;;;;;;28.10;22.70;;;;;;;30.03;81.43;-18830.34;5026442;28;20045;-76
2023/09/10 08:56:16;;;;;;;28.55;21.48;;;;;;;30.06;80.62;-18831.28;5027064;28;20122;-75
2023/09/10 08:58:43;;;;;;;31.63;22.23;;;;;;;30.13;83.00;-18833.03;5006510;28;20091;-76
2023/09/10 09:01:08;;;;;;;27.85;23.05;;;;;;;30.12;80.57;-18832.75;5026500;28;20037;-76
2023/09/10 09:03:35;;;;;;;26.88;22.13;;;;;;;30.25;81.14;-18836.13;5026699;28;20433;-76
2023/09/10 09:06:04;;;;;;;26.23;21.30;;;;;;;30.26;79.43;-18836.53;5023190;28;20626;-76
2023/09/10 09:08:38;;;;;;;23.70;19.98;;;;;;;30.17;82.12;-18834.09;5022606;28;20037;-77
2023/09/10 09:11:06;;;;;;;28.80;20.50;;;;;;;30.18;82.82;-18834.38;5021358;28;20449;-77
2023/09/10 09:13:37;;;;;;;25.10;17.83;;;;;;;30.34;78.42;-18838.56;5025946;28;20049;-76
2023/09/10 09:16:04;;;;;;;21.58;18.23;;;;;;;30.49;77.96;-18842.44;5024689;28;20041;-76
2023/09/10 09:18:30;;;;;;;21.88;18.15;;;;;;;30.55;76.50;-18844.06;5009510;28;20156;-76
2023/09/10 09:21:01;;;;;;;20.48;16.60;;;;;;;30.67;73.25;-18847.28;5026909;28;20397;-76
2023/09/10 09:23:31;;;;;;;17.58;13.70;;;;;;;30.62;72.94;-18845.81;5026304;28;20068;-77
2023/09/10 09:25:57;;;;;;;20.52;14.52;;;;;;;30.76;73.43;-18849.59;5024153;28;20037;-76
2023/09/10 09:28:23;;;;;;;18.08;14.27;;;;;;;30.55;67.93;-18844.06;5023253;28;20050;-76
2023/09/10 09:30:49;;;;;;;18.88;15.57;;;;;;;30.74;69.17;-18849.19;5026590;28;20068;-76
2023/09/10 09:33:15;;;;;;;16.40;12.70;;;;;;;30.80;71.99;-18850.78;5023440;28;20108;-76
2023/09/10 09:35:40;;;;;;;18.55;13.77;;;;;;;30.80;71.27;-18850.78;5022636;28;20053;-76
2023/09/10 09:38:11;;;;;;;17.50;14.38;;;;;;;30.68;73.29;-18847.44;5024708;28;20053;-76
2023/09/10 09:40:36;;;;;;;16.48;13.18;;;;;;;30.30;74.52;-18837.63;5023818;28;20045;-77
2023/09/10 09:43:06;;;;;;;16.33;13.70;;;;;;;30.35;77.12;-18838.97;5007299;28;20392;-76
2023/09/10 09:45:32;;;;;;;17.00;13.98;;;;;;;30.59;73.16;-18845.16;5021625;28;20353;-76
2023/09/10 09:47:58;;;;;;;18.98;14.25;;;;;;;30.65;73.21;-18846.75;5023827;28;20132;-75
2023/09/10 09:50:26;;;;;;;19.17;14.70;;;;;;;30.73;76.48;-18848.78;5024812;28;20136;-76
2023/09/10 09:52:51;;;;;;;18.83;13.70;;;;;;;30.65;75.65;-18846.75;5025022;28;20516;-77
2023/09/10 09:55:17;;;;;;;15.63;12.23;;;;;;;30.69;73.55;-18847.84;5009256;28;20042;-77
2023/09/10 09:57:48;;;;;;;14.80;11.80;;;;;;;30.79;74.94;-18850.41;5022000;28;20049;-76
2023/09/10 10:00:14;;;;;;;16.35;11.55;;;;;;;30.85;71.77;-18851.88;5024689;28;20045;-76
2023/09/10 10:02:40;;;;;;;14.10;10.50;;;;;;;30.96;72.23;-18854.84;5020140;28;20041;-76
2023/09/10 10:05:07;;;;;;;14.95;11.80;;;;;;;31.20;68.56;-18861.28;5018843;28;20120;-76
2023/09/10 10:07:36;;;;;;;16.38;11.25;;;;;;;31.33;68.47;-18864.50;5016564;28;20520;-76
2023/09/10 10:10:05;;;;;;;13.40;11.02;;;;;;;31.34;69.05;-18864.91;5020448;28;20038;-77
2023/09/10 10:12:31;;;;;;;14.43;11.38;;;;;;;31.24;68.13;-18862.34;5025342;28;20050;-77
2023/09/10 10:14:57;;;;;;;13.20;10.15;;;;;;;31.47;68.17;-18868.41;5023963;28;21039;-76
2023/09/10 10:17:24;;;;;;;14.70;11.63;;;;;;;31.45;67.92;-18867.88;5022770;28;20058;-77
2023/09/10 10:19:50;;;;;;;16.67;11.00;;;;;;;31.63;68.22;-18872.56;5022600;28;20405;-76
2023/09/10 10:22:16;;;;;;;16.60;11.90;;;;;;;31.84;67.17;-18877.94;5022946;28;20049;-77
2023/09/10 10:24:42;;;;;;;14.77;10.23;;;;;;;31.87;69.34;-18878.75;5027186;28;20042;-76
2023/09/10 10:27:08;;;;;;;17.30;11.00;;;;;;;32.08;64.26;-18884.38;5004041;28;20048;-75
2023/09/10 10:29:34;;;;;;;15.25;9.25;;;;;;;32.29;63.21;-18889.75;5027089;28;20044;-77
2023/09/10 10:31:59;;;;;;;13.75;10.15;;;;;;;32.13;60.43;-18885.59;5020010;28;20081;-76
2023/09/10 10:34:26;;;;;;;14.13;8.60;;;;;;;32.31;64.05;-18890.28;5021159;28;20045;-78
2023/09/10 10:37:10;;;;;;;11.77;9.15;;;;;;;31.62;67.26;-18872.31;5021102;28;20049;-76
2023/09/10 10:39:54;;;;;;;14.57;10.32;;;;;;;31.05;72.00;-18857.25;4988042;28;20056;-78
2023/09/10 10:42:32;;;;;;;13.52;10.25;;;;;;;31.55;66.50;-18870.41;5017630;28;20052;-79
2023/09/10 10:45:00;;;;;;;;;;;;;;;32.02;63.62;-18882.63;5021879;28;20033;-77
2023/09/10 10:47:28;;;;;;;15.85;8.38;;;;;;;31.90;61.41;-18879.69;5022371;28;19928;-77
2023/09/10 10:49:56;;;;;;;;;;;;;;;31.71;61.26;-18874.59;5018794;28;20060;-76
2023/09/10 10:52:31;;;;;;;13.27;8.63;;;;;;;31.87;65.03;-18878.88;5022615;28;19917;-76
2023/09/10 10:54:57;;;;;;;12.55;7.90;;;;;;;32.14;62.08;-18885.88;5022178;28;20041;-74
2023/09/10 10:57:25;;;;;;;18.85;8.40;;;;;;;32.25;64.86;-18888.69;5019135;28;20049;-77
2023/09/10 10:59:51;;;;;;;15.43;9.00;;;;;;;32.19;62.81;-18887.06;5025022;28;20120;-76
2023/09/10 11:02:24;;;;;;;11.52;7.07;;;;;;;32.33;63.77;-18890.81;4998072;28;20038;-77